Flight Track Log - Related Links

Times and Time Zones

All times are in EDT time to prevent confusion due to time zone crossing. See the SWA1035 flight status page for this flight to view local times or setup timezone preferences in your user account.

Time Position Orientation Groundspeed Altitude Reporting Facility
EDT Latitude Longitude Course Direction KTS MPH feet Rate Location/Type
Wed 10:59:48 AM 27.9167 -82.5667 196° South 188 216 1,900  Level Tampa TRACON
Wed 11:01:27 AM 27.8825 -82.6344 240° Southwest 188 216 6,200 2,868 Climbing Jacksonville Center
Wed 11:02:27 AM 27.9578 -82.6553 346° North 155 178 9,500 2,650 Climbing Jacksonville Center
Wed 11:03:27 AM 28.0433 -82.6808 345° North 216 249 11,500 2,350 Climbing Jacksonville Center
Wed 11:04:27 AM 28.1478 -82.6925 354° North 307 353 14,200 2,900 Climbing Jacksonville Center
Wed 11:05:27 AM 28.2542 -82.6994 357° North 348 400 17,300 2,650 Climbing Jacksonville Center
Wed 11:06:27 AM 28.3669 -82.7061 357° North 380 437 19,500 2,500 Climbing Jacksonville Center
Wed 11:07:27 AM 28.4794 -82.7319 349° North 397 457 22,300 2,400 Climbing Jacksonville Center
Wed 11:08:27 AM 28.5944 -82.7578 349° North 407 468 24,300 1,950 Climbing Jacksonville Center
Wed 11:09:27 AM 28.6925 -82.8264 328° Northwest 413 475 26,200 1,950 Climbing Jacksonville Center
Wed 11:10:27 AM 28.7864 -82.9069 323° Northwest 413 475 28,200 2,150 Climbing Jacksonville Center
Wed 11:11:27 AM 28.8825 -82.9828 325° Northwest 419 482 30,500 2,200 Climbing Jacksonville Center
Wed 11:12:27 AM 28.9764 -83.0586 325° Northwest 419 482 32,600 1,750 Climbing Jacksonville Center
Wed 11:13:27 AM 29.0639 -83.1325 324° Northwest 414 476 34,000 700 Climbing Jacksonville Center
Wed 11:14:27 AM 29.1514 -83.2064 324° Northwest 402 463 34,000 450 Level Jacksonville Center
Wed 11:15:27 AM 29.2408 -83.2758 326° Northwest 394 453 34,900 1,150 Climbing Jacksonville Center
Wed 11:16:27 AM 29.3242 -83.3500 322° Northwest 388 447 36,300 1,300 Climbing Jacksonville Center
Wed 11:17:27 AM 29.4136 -83.4194 326° Northwest 388 447 37,500 850 Climbing Jacksonville Center
Wed 11:18:27 AM 29.4989 -83.4914 324° Northwest 388 447 38,000 250 Climbing Jacksonville Center
Wed 11:19:27 AM 29.5861 -83.5636 324° Northwest 388 447 38,000  Level Jacksonville Center
Wed 11:20:27 AM 29.6714 -83.6336 325° Northwest 388 447 38,000  Level Jacksonville Center
Wed 11:21:27 AM 29.7567 -83.7061 324° Northwest 388 447 38,000  Level Jacksonville Center
Wed 11:22:27 AM 29.8458 -83.7761 326° Northwest 388 447 38,000  Level Jacksonville Center
Wed 11:23:27 AM 29.9311 -83.8489 324° Northwest 388 447 38,000  Level Jacksonville Center
Wed 11:24:27 AM 30.0139 -83.9192 324° Northwest 388 447 38,000  Level Jacksonville Center
Wed 11:25:27 AM 30.1072 -83.9969 324° Northwest 383 441 38,000  Level Jacksonville Center
Wed 11:26:27 AM 30.1922 -84.0700 323° Northwest 383 441 38,000  Level Jacksonville Center
Wed 11:27:27 AM 30.2792 -84.1408 325° Northwest 383 441 38,000  Level Jacksonville Center
Wed 11:28:27 AM 30.3517 -84.2019 324° Northwest 378 435 38,000  Level Jacksonville Center
Wed 11:29:27 AM 30.4386 -84.2756 324° Northwest 378 435 38,000  Level Jacksonville Center
Wed 11:30:27 AM 30.5233 -84.3467 324° Northwest 378 435 38,000  Level Jacksonville Center
Wed 11:31:27 AM 30.6100 -84.4372 318° Northwest 378 435 38,000  Level Jacksonville Center
Wed 11:32:27 AM 30.6822 -84.5158 317° Northwest 383 441 38,000  Level Jacksonville Center
Wed 11:33:27 AM 30.7561 -84.6042 314° West 383 441 38,000  Level Jacksonville Center
Wed 11:34:27 AM 30.8361 -84.7000 314° West 383 441 38,000  Level Jacksonville Center
Wed 11:35:27 AM 30.9100 -84.7861 315° West 378 435 38,000  Level Jacksonville Center
Wed 11:37:41 AM 31.0753 -84.9747 316° Northwest 379 436 38,000  Level Atlanta Center
Wed 11:38:41 AM 31.1475 -85.0603 315° West 374 430 38,000  Level Atlanta Center
Wed 11:39:41 AM 31.2242 -85.1461 316° Northwest 381 438 38,000  Level Atlanta Center
Wed 11:40:41 AM 31.2964 -85.2297 315° West 381 438 38,000  Level Atlanta Center
Wed 11:41:41 AM 31.3686 -85.3133 315° West 376 433 38,000  Level Atlanta Center
Wed 11:42:41 AM 31.4428 -85.3969 316° Northwest 376 433 38,000  Level Atlanta Center
Wed 11:43:41 AM 31.5067 -85.4736 314° West 376 433 38,000  Level Atlanta Center
Wed 11:44:41 AM 31.5786 -85.5575 315° West 371 427 38,000  Level Atlanta Center
Wed 11:45:41 AM 31.6506 -85.6417 315° West 366 421 38,000  Level Atlanta Center
Wed 11:46:41 AM 31.7206 -85.7258 314° West 361 415 38,000  Level Atlanta Center
Wed 11:47:41 AM 31.7983 -85.8228 313° West 361 415 38,000  Level Atlanta Center
Wed 11:48:41 AM 31.8722 -85.9072 316° Northwest 361 415 38,000  Level Atlanta Center
Wed 11:49:41 AM 31.9461 -85.9919 316° Northwest 361 415 38,000  Level Atlanta Center
Wed 11:50:41 AM 32.0178 -86.0792 314° West 367 422 38,000  Level Atlanta Center
Wed 11:51:41 AM 32.0811 -86.1542 315° West 352 405 38,000  Level Atlanta Center
Wed 11:52:41 AM 32.1631 -86.2469 316° Northwest 376 433 38,000  Level Atlanta Center
Wed 11:53:41 AM 32.2386 -86.3422 313° West 372 428 38,000  Level Atlanta Center
Wed 11:54:41 AM 32.3119 -86.4300 315° West 380 437 38,000  Level Atlanta Center
Wed 11:55:41 AM 32.3833 -86.5206 313° West 380 437 38,000  Level Atlanta Center
Wed 11:56:41 AM 32.4547 -86.6086 314° West 380 437 38,000  Level Atlanta Center
Wed 11:57:41 AM 32.5317 -86.7094 312° West 374 430 38,000  Level Atlanta Center
Wed 11:58:41 AM 32.6242 -86.7764 329° Northwest 384 442 38,000  Level Atlanta Center
Wed 11:59:41 AM 32.7167 -86.8458 328° Northwest 384 442 38,000  Level Atlanta Center
Wed 12:00:41 PM 32.8111 -86.9131 329° Northwest 389 448 38,000  Level Atlanta Center
Wed 12:01:41 PM 32.9033 -86.9831 327° Northwest 394 453 38,000  Level Atlanta Center
Wed 12:02:41 PM 32.9978 -87.0481 330° Northwest 394 453 38,000  Level Atlanta Center
Wed 12:03:41 PM 33.0797 -87.1128 327° Northwest 394 453 38,000  Level Atlanta Center
Wed 12:04:41 PM 33.1719 -87.1781 329° Northwest 394 453 38,000  Level Atlanta Center
Wed 12:05:41 PM 33.2683 -87.2486 329° Northwest 394 453 38,000  Level Atlanta Center
Wed 12:06:41 PM 33.3644 -87.3169 329° Northwest 399 459 38,000  Level Atlanta Center
Wed 12:07:21 PM 33.4356 -87.3775 325° Northwest 403 464 38,000  Level Memphis Center
Wed 12:08:21 PM 33.4875 -87.4556 309° West 407 468 38,000  Level Memphis Center
Wed 12:09:21 PM 33.5569 -87.5653 307° West 393 452 38,000  Level Memphis Center
Wed 12:11:21 PM 33.6825 -87.7711 306° West 381 438 38,000  Level Memphis Center
Wed 12:12:21 PM 33.7450 -87.8742 306° West 381 438 38,000  Level Memphis Center
Wed 12:13:21 PM 33.8181 -87.9819 309° West 378 435 38,000  Level Memphis Center
Wed 12:14:21 PM 33.8742 -88.0756 306° West 378 435 38,000  Level Memphis Center
Wed 12:15:21 PM 33.9367 -88.1814 305° West 383 441 38,000  Level Memphis Center
Wed 12:16:21 PM 34.0008 -88.2875 306° West 390 449 38,000  Level Memphis Center
Wed 12:17:21 PM 34.0653 -88.3939 306° West 390 449 38,000  Level Memphis Center
Wed 12:18:21 PM 34.1294 -88.5003 306° West 396 456 38,000  Level Memphis Center
Wed 12:19:21 PM 34.1936 -88.6044 307° West 396 456 38,000  Level Memphis Center
Wed 12:20:21 PM 34.2578 -88.7086 307° West 396 456 38,000  Level Memphis Center
Wed 12:21:21 PM 34.3217 -88.8156 306° West 396 456 38,000  Level Memphis Center
Wed 12:22:21 PM 34.3897 -88.9275 306° West 384 442 38,000  Level Memphis Center
Wed 12:23:21 PM 34.4536 -89.0322 307° West 384 442 38,000  Level Memphis Center
Wed 12:24:21 PM 34.5194 -89.1397 307° West 390 449 38,000  Level Memphis Center
Wed 12:25:21 PM 34.5831 -89.2472 306° West 398 458 38,000  Level Memphis Center
Wed 12:26:21 PM 34.6464 -89.3575 305° West 398 458 38,000  Level Memphis Center
Wed 12:27:21 PM 34.7100 -89.4628 306° West 392 451 38,000  Level Memphis Center
Wed 12:28:21 PM 34.7733 -89.5683 306° West 392 451 38,000  Level Memphis Center
Wed 12:29:21 PM 34.8303 -89.6689 305° West 391 450 38,000  Level Memphis Center
Wed 12:30:21 PM 34.8933 -89.7747 306° West 391 450 38,000  Level Memphis Center
Wed 12:31:21 PM 34.9711 -89.9036 306° West 411 473 38,000  Level Memphis Center
Wed 12:32:21 PM 35.0319 -90.0072 306° West 404 465 38,000  Level Memphis Center
Wed 12:33:21 PM 35.1031 -90.1033 312° West 389 448 38,000  Level Memphis Center
Wed 12:34:21 PM 35.1742 -90.1997 312° West 384 442 38,000  Level Memphis Center
Wed 12:35:21 PM 35.2431 -90.2936 312° West 379 436 38,000  Level Memphis Center
Wed 12:36:21 PM 35.3139 -90.3928 311° West 384 442 38,000  Level Memphis Center
Wed 12:37:21 PM 35.3828 -90.4894 311° West 384 442 38,000  Level Memphis Center
Wed 12:38:21 PM 35.4472 -90.5786 312° West 384 442 38,000  Level Memphis Center
Wed 12:39:21 PM 35.5181 -90.6758 312° West 384 442 38,000  Level Memphis Center
Wed 12:40:21 PM 35.5886 -90.7758 311° West 389 448 38,000  Level Memphis Center
Wed 12:41:21 PM 35.6592 -90.8758 311° West 384 442 38,000  Level Memphis Center
Wed 12:42:21 PM 35.7256 -90.9733 310° West 379 436 38,000  Level Memphis Center
Wed 12:43:21 PM 35.7981 -91.0736 312° West 385 443 38,000  Level Memphis Center
Wed 12:44:21 PM 35.8703 -91.1794 310° West 385 443 38,000  Level Memphis Center
Wed 12:45:21 PM 35.9425 -91.2800 312° West 385 443 38,000  Level Memphis Center
Wed 12:46:21 PM 36.0128 -91.3783 311° West 385 443 38,000  Level Memphis Center
Wed 12:47:21 PM 36.0828 -91.4742 312° West 380 437 38,000  Level Memphis Center
Wed 12:48:21 PM 36.1464 -91.5703 309° West 380 437 38,000  Level Memphis Center
Wed 12:49:21 PM 36.2144 -91.6689 311° West 380 437 38,000  Level Memphis Center
Wed 12:50:21 PM 36.2883 -91.7628 314° West 380 437 38,000  Level Memphis Center
Wed 12:51:21 PM 36.3539 -91.8619 309° West 380 437 38,000  Level Memphis Center
Wed 12:52:21 PM 36.4217 -91.9558 312° West 380 437 38,000  Level Memphis Center
Wed 12:54:05 PM 36.5367 -92.1242 310° West 372 428 38,000  Level Kansas City Center
Wed 12:55:09 PM 36.6011 -92.2178 311° West 371 427 38,000  Level Kansas City Center
Wed 12:56:10 PM 36.6672 -92.3139 311° West 368 423 38,000  Level Kansas City Center
Wed 12:57:14 PM 36.7342 -92.4106 311° West 366 421 38,000  Level Kansas City Center
Wed 12:58:15 PM 36.7992 -92.5069 310° West 363 418 38,000  Level Kansas City Center
Wed 12:59:15 PM 36.8631 -92.6042 309° West 362 417 38,000  Level Kansas City Center
Wed 01:00:19 PM 36.9422 -92.7183 311° West 361 415 38,000  Level Kansas City Center
Wed 01:01:20 PM 37.0075 -92.8147 310° West 361 415 38,000 -492 Level Kansas City Center
Wed 01:02:21 PM 37.0728 -92.9122 310° West 362 417 37,000 -480 Descending Kansas City Center
Wed 01:03:25 PM 37.1369 -93.0075 310° West 358 412 37,000  Level Kansas City Center
Wed 01:04:26 PM 37.1994 -93.1019 310° West 353 406 37,000  Level Kansas City Center
Wed 01:05:30 PM 37.2625 -93.1944 311° West 348 400 37,000  Level Kansas City Center
Wed 01:06:31 PM 37.3244 -93.2872 310° West 345 397 37,000 -484 Level Kansas City Center
Wed 01:07:34 PM 37.4197 -93.3714 325° Northwest 356 410 36,000 -488 Descending Kansas City Center
Wed 01:08:34 PM 37.5153 -93.4231 337° Northwest 362 417 36,000 -484 Level Kansas City Center
Wed 01:09:38 PM 37.6108 -93.4772 336° Northwest 367 422 35,000 -1,238 Descending Kansas City Center
Wed 01:10:40 PM 37.7036 -93.5269 337° Northwest 366 421 33,400 -1,721 Descending Kansas City Center
Wed 01:11:40 PM 37.7906 -93.5753 336° Northwest 348 400 31,500 -1,790 Descending Kansas City Center
Wed 01:12:44 PM 37.8714 -93.6222 335° Northwest 326 375 29,700 -1,694 Descending Kansas City Center
Wed 01:13:44 PM 37.9500 -93.6661 336° Northwest 312 359 28,000 -1,597 Descending Kansas City Center
Wed 01:14:48 PM 38.0264 -93.7081 337° Northwest 303 349 26,400 -1,677 Descending Kansas City Center
Wed 01:16:00 PM 38.1388 -93.7633 335° Northwest  Level FlightAware Approximate
Wed 01:16:50 PM 38.2044 -93.8106 335° Northwest 325 374 22,800  Level Kansas City Center
Wed 01:17:53 PM 38.2908 -93.8572 337° Northwest 333 383 20,700 -1,824 Descending Kansas City Center
Wed 01:18:55 PM 38.3694 -93.9025 336° Northwest 318 366 19,000 -1,429 Descending Kansas City Center
Wed 01:19:59 PM 38.4425 -93.9453 335° Northwest 298 343 17,700 -1,548 Descending Kansas City Center
Wed 01:20:59 PM 38.5231 -93.9892 337° Northwest 283 326 15,800 -1,789 Descending Kansas City Center
Wed 01:22:50 PM 38.6500 -94.0667 335° Northwest 264 304 12,600 -1,855 Descending Kansas City TRACON
Wed 01:23:44 PM 38.7000 -94.1167 322° Northwest 272 313 10,700 -1,865 Descending Kansas City TRACON
Wed 01:24:04 PM 38.7228 -94.1253 344° North 274 315 10,300 -500 Descending Kansas City Center
Wed 01:25:08 PM 38.7858 -94.1942 320° Northwest 266 306 10,000 -144 Descending Kansas City Center
Wed 01:26:09 PM 38.8400 -94.2517 320° Northwest 266 306 10,000 -384 Level Kansas City Center
Wed 01:27:13 PM 38.8789 -94.3272 303° West 271 312 9,200 -1,210 Descending Kansas City Center
Wed 01:28:13 PM 38.9094 -94.4244 292° West 265 305 7,500 -1,091 Descending Kansas City Center
Wed 01:29:14 PM 38.9350 -94.5067 292° West 259 298 7,000 -720 Descending Kansas City Center
Wed 01:30:18 PM 38.9850 -94.5844 310° West 256 295 6,000 -960 Descending Kansas City Center
Wed 01:31:19 PM 39.0322 -94.6464 314° West 255 293 5,000 -864 Descending Kansas City Center
Wed 01:32:23 PM 39.0928 -94.7031 324° Northwest 238 274 4,200 -960 Descending Kansas City Center
Wed 01:33:24 PM 39.1542 -94.7278 343° North 249 287 3,000 -823 Descending Kansas City Center
Wed 01:34:27 PM 39.2178 -94.7278 360° North 206 237 2,500 -677 Descending Kansas City Center
Wed 01:35:28 PM 39.2589 -94.7161 12° North 160 184 1,600 -738 Descending Kansas City Center
Wed 01:36:29 PM 39.3019 -94.7047 12° North 141 162 1,000 -590 Descending Kansas City Center

Login

Don't have an account? Register now (free) for customized features, flight alerts, and more!